Time;durP1;ratioP1;P1;durP2;ratioP2;P2;SDS_P1;SDS_P2;PMS_P1;PMS_P2;Temp;Humidity;BMP_temperature;BMP_pressure;BME280_temperature;BME280_humidity;BME280_pressure;Samples;Min_cycle;Max_cycle;Signal;HPM_P1;HPM_P2
2022/08/31 05:48:05;;;;;;;;;8.33;5.00;;;;;23.33;46.06;101591.66;5067934;27;45780;-74
2022/08/31 05:50:30;;;;;;;;;4.00;4.00;;;;;23.47;46.02;101590.31;5059451;27;45777;-73
2022/08/31 05:52:56;;;;;;;;;4.67;4.67;;;;;23.70;46.36;101588.06;5059571;27;47557;-73
2022/08/31 05:55:21;;;;;;;;;4.33;4.00;;;;;23.97;46.35;101583.66;5061161;27;46624;-73
2022/08/31 05:57:46;;;;;;;;;4.33;4.33;;;;;24.30;46.24;101600.34;5058430;27;46912;-74
2022/08/31 06:00:12;;;;;;;;;4.67;4.67;;;;;24.61;45.87;101601.84;5059970;27;45458;-74
2022/08/31 06:02:38;;;;;;;;;6.67;4.67;;;;;24.95;45.28;101600.28;5060166;27;45454;-74
2022/08/31 06:05:05;;;;;;;;;5.00;5.00;;;;;25.26;45.09;101588.97;5063320;27;45542;-74
2022/08/31 06:07:30;;;;;;;;;6.67;6.00;;;;;25.56;44.87;101591.38;5058461;27;47017;-74
2022/08/31 06:09:55;;;;;;;;;3.33;3.33;;;;;25.85;44.24;101587.44;5062200;27;45436;-74
2022/08/31 06:12:24;;;;;;;;;6.67;5.67;;;;;26.10;43.49;101582.06;5058150;27;45929;-73
2022/08/31 06:14:49;;;;;;;;;5.00;5.00;;;;;26.34;43.06;101581.31;5060165;27;45511;-73
2022/08/31 06:17:16;;;;;;;;;5.67;3.67;;;;;26.56;43.04;101590.69;5060680;27;45728;-74
2022/08/31 06:19:42;;;;;;;;;5.00;5.00;;;;;26.78;42.82;101590.19;5060876;27;45634;-74
2022/08/31 06:22:07;;;;;;;;;5.00;5.00;;;;;26.98;42.38;101592.59;5060600;27;45786;-75
2022/08/31 06:24:33;;;;;;;;;6.33;5.00;;;;;27.12;41.82;101591.03;5061505;27;46850;-73
2022/08/31 06:26:58;;;;;;;;;4.00;4.00;;;;;27.23;41.07;101590.69;5063615;27;46225;-72
2022/08/31 06:29:25;;;;;;;;;5.33;3.67;;;;;27.37;41.16;101586.41;5068358;28;45585;-72
2022/08/31 06:31:50;;;;;;;;;4.00;4.00;;;;;27.51;40.77;101578.53;5060220;28;46396;-72
2022/08/31 06:34:18;;;;;;;;;3.67;3.67;;;;;27.66;41.07;101589.59;5070056;27;45474;-72
2022/08/31 06:36:44;;;;;;;;;6.00;6.00;;;;;27.77;40.75;101589.19;5068977;28;46232;-73
2022/08/31 06:39:11;;;;;;;;;5.33;4.00;;;;;27.84;40.08;101592.91;5068813;27;45516;-73
2022/08/31 06:41:38;;;;;;;;;4.00;4.00;;;;;27.91;39.90;101593.03;5069671;27;45386;-73
2022/08/31 06:44:07;;;;;;;;;4.00;4.00;;;;;27.96;40.34;101603.44;5069313;27;46605;-73
2022/08/31 06:46:34;;;;;;;;;4.00;4.00;;;;;28.03;39.72;101596.22;5069330;28;45398;-74
2022/08/31 06:48:59;;;;;;;;;6.00;6.00;;;;;28.09;39.86;101598.25;5067312;27;45469;-73
2022/08/31 06:51:25;;;;;;;;;5.67;5.00;;;;;28.15;39.78;101591.22;5061273;27;45663;-73
2022/08/31 06:53:51;;;;;;;;;4.00;4.00;;;;;28.21;38.83;101601.44;5068676;28;45498;-73
2022/08/31 06:56:20;;;;;;;;;5.67;5.33;;;;;28.22;39.37;101594.94;5066898;27;46077;-72
2022/08/31 06:58:46;;;;;;;;;5.33;5.00;;;;;28.24;38.77;101590.16;5054044;28;46529;-72
2022/08/31 07:01:17;;;;;;;;;6.33;4.67;;;;;28.28;38.98;101599.69;5053428;28;45487;-72
2022/08/31 07:03:44;;;;;;;;;6.00;4.00;;;;;28.32;38.54;101597.44;5054564;28;45436;-72
2022/08/31 07:06:19;;;;;;;;;4.33;4.33;;;;;28.36;38.28;101596.06;5054092;28;47184;-72
2022/08/31 07:08:46;;;;;;;;;4.00;4.00;;;;;28.43;38.35;101603.53;5046370;28;46874;-71
2022/08/31 07:11:14;;;;;;;;;5.00;4.33;;;;;28.45;38.22;101598.75;5046836;28;45783;-72
2022/08/31 07:13:41;;;;;;;;;6.00;5.00;;;;;28.49;38.10;101597.34;5050825;28;45530;-72
2022/08/31 07:16:11;;;;;;;;;6.00;6.00;;;;;28.52;38.48;101599.69;5049330;28;46311;-72
2022/08/31 07:18:37;;;;;;;;;5.00;5.00;;;;;28.56;38.29;101603.78;5052217;28;47061;-72
2022/08/31 07:21:30;;;;;;;;;8.00;5.00;;;;;28.59;38.49;101597.09;5049471;28;45407;-73
2022/08/31 07:24:00;;;;;;;;;4.00;4.00;;;;;28.60;37.87;101602.38;5051249;28;46845;-73
2022/08/31 07:26:30;;;;;;;;;5.00;5.00;;;;;28.62;38.18;101599.47;5051100;28;45732;-73
2022/08/31 07:28:58;;;;;;;;;3.00;3.00;;;;;28.62;37.37;101594.88;5053290;28;46954;-72
2022/08/31 07:31:36;;;;;;;;;4.00;4.00;;;;;28.64;37.48;101605.59;5053536;28;45576;-73
2022/08/31 07:34:04;;;;;;;;;4.33;4.33;;;;;28.64;37.28;101601.00;5052490;28;45541;-72
2022/08/31 07:36:29;;;;;;;;;4.67;4.67;;;;;28.65;37.97;101599.94;5045726;28;45530;-73
2022/08/31 07:44:23;;;;;;;;;5.00;5.00;;;;;28.62;37.52;101613.13;5049030;28;45445;-72
2022/08/31 07:46:54;;;;;;;;;6.00;5.33;;;;;28.60;38.12;101610.56;5047855;28;46120;-71
2022/08/31 07:49:20;;;;;;;;;4.33;4.33;;;;;28.64;37.56;101611.91;5051858;28;45559;-71
2022/08/31 07:51:51;;;;;;;;;5.33;4.00;;;;;28.66;37.41;101617.19;5052618;28;45525;-71
2022/08/31 07:54:21;;;;;;;;;5.33;5.33;;;;;28.70;37.22;101609.47;5054539;28;45465;-71
2022/08/31 07:56:50;;;;;;;;;3.67;3.67;;;;;28.74;37.22;101617.13;5051898;28;46157;-71
2022/08/31 07:59:20;;;;;;;;;5.00;5.00;;;;;28.76;37.24;101612.34;5050047;28;45389;-72
2022/08/31 08:01:47;;;;;;;;;4.00;4.00;;;;;28.78;37.25;101609.41;5048966;28;45452;-72
2022/08/31 08:04:24;;;;;;;;;5.00;4.33;;;;;28.78;37.01;101615.72;5048945;28;45618;-71
2022/08/31 08:06:54;;;;;;;;;5.67;5.67;;;;;28.82;37.12;101612.63;5050233;28;47599;-73
2022/08/31 08:09:25;;;;;;;;;5.33;5.00;;;;;28.80;37.60;101596.41;5043239;28;45527;-72
2022/08/31 08:11:54;;;;;;;;;3.00;3.00;;;;;28.82;37.07;101601.69;5047916;28;45598;-72
2022/08/31 08:14:20;;;;;;;;;4.67;4.67;;;;;28.82;36.94;101594.38;5052650;28;45327;-71
2022/08/31 08:16:47;;;;;;;;;5.00;5.00;;;;;28.81;37.08;101587.19;5048166;28;45513;-72
2022/08/31 08:19:12;;;;;;;;;6.00;5.00;;;;;28.82;37.57;101588.91;5050872;28;45853;-74
2022/08/31 08:21:37;;;;;;;;;6.00;6.00;;;;;28.81;36.95;101589.91;5052793;28;45489;-74
2022/08/31 08:24:03;;;;;;;;;5.67;5.67;;;;;28.78;37.16;101585.66;5051141;28;45501;-73
2022/08/31 08:26:29;;;;;;;;;7.67;6.00;;;;;28.81;36.61;101584.44;5042482;28;46335;-72
2022/08/31 08:28:54;;;;;;;;;10.00;8.67;;;;;28.79;37.10;101579.19;5051064;28;45517;-73
2022/08/31 08:31:23;;;;;;;;;6.00;6.00;;;;;28.82;36.93;101572.50;5040476;28;45816;-73
2022/08/31 08:33:50;;;;;;;;;5.00;5.00;;;;;28.82;37.30;101575.25;5041585;28;45524;-73
2022/08/31 08:36:18;;;;;;;;;5.67;5.67;;;;;28.79;37.22;101571.00;5046568;28;45530;-73
2022/08/31 08:38:46;;;;;;;;;8.33;6.00;;;;;28.79;36.74;101578.34;5042196;28;46119;-73
2022/08/31 08:41:18;;;;;;;;;5.00;5.00;;;;;28.77;36.85;101574.94;5041680;28;45420;-73
2022/08/31 08:43:47;;;;;;;;;4.33;4.00;;;;;28.77;36.90;101580.41;5040359;28;46127;-73
2022/08/31 08:46:13;;;;;;;;;6.33;6.33;;;;;28.79;36.97;101586.53;5034177;28;45408;-74
2022/08/31 08:48:41;;;;;;;;;5.00;5.00;;;;;28.76;36.85;101586.88;5041994;28;45860;-73
2022/08/31 08:51:13;;;;;;;;;6.67;5.67;;;;;28.77;37.25;101586.72;5037870;28;45530;-73
2022/08/31 08:53:42;;;;;;;;;5.00;5.00;;;;;28.80;37.03;101582.75;5037302;28;45722;-73
2022/08/31 08:56:11;;;;;;;;;10.00;8.00;;;;;28.82;36.69;101571.66;5058785;27;48288;-73
2022/08/31 08:58:41;;;;;;;;;8.67;7.67;;;;;28.82;36.59;101571.66;5055350;28;45821;-72
2022/08/31 09:01:10;;;;;;;;;5.33;5.33;;;;;28.82;37.25;101574.38;5047323;28;45566;-71
2022/08/31 09:04:20;;;;;;;;;7.00;5.33;;;;;28.89;37.51;101581.69;5039203;28;46553;-71
2022/08/31 09:07:05;;;;;;;;;7.00;6.00;;;;;28.95;37.46;101563.72;5044758;28;46349;-72
2022/08/31 09:09:35;;;;;;;;;6.67;6.67;;;;;29.02;36.85;101567.38;5044072;28;46825;-71
2022/08/31 09:12:21;;;;;;;;;6.00;4.33;;;;;29.07;36.82;101561.38;5042541;28;45657;-73
2022/08/31 09:15:35;;;;;;;;;10.67;8.00;;;;;29.12;36.44;101558.06;5043710;28;45771;-73
2022/08/31 09:18:36;;;;;;;;;8.67;7.00;;;;;29.11;36.48;101559.97;5001008;28;47017;-73
2022/08/31 09:21:04;;;;;;;;;9.33;7.67;;;;;29.09;37.14;101563.94;5001207;28;46996;-72
2022/08/31 09:23:35;;;;;;;;;7.33;5.00;;;;;29.09;37.63;101561.19;5008763;28;45390;-72
2022/08/31 09:26:01;;;;;;;;;10.00;8.00;;;;;29.04;36.66;101553.53;5010408;28;45499;-72
2022/08/31 09:28:47;;;;;;;;;8.00;8.00;;;;;29.04;37.17;101548.94;5003080;28;47488;-75
2022/08/31 09:31:45;;;;;;;;;8.67;6.00;;;;;29.05;36.76;101547.88;5005378;28;45693;-74
2022/08/31 09:34:27;;;;;;;;;10.00;8.67;;;;;29.02;37.53;101544.69;4957698;28;45549;-74
2022/08/31 09:37:32;;;;;;;;;8.00;6.00;;;;;28.97;36.85;101549.88;4970008;28;45519;-74
2022/08/31 09:40:13;;;;;;;;;9.00;7.33;;;;;28.95;37.64;101544.59;4967130;28;47006;-74
2022/08/31 09:42:40;;;;;;;;;7.67;5.67;;;;;28.94;37.83;101545.63;4969226;28;45461;-74
2022/08/31 09:45:14;;;;;;;;;6.00;5.67;;;;;28.95;38.08;101536.38;4966805;28;45663;-75
2022/08/31 09:47:54;;;;;;;;;6.00;6.00;;;;;28.96;38.13;101535.34;4957745;28;45574;-74
2022/08/31 09:50:27;;;;;;;;;5.67;5.33;;;;;28.98;38.13;101537.91;4964886;28;45490;-74
2022/08/31 09:56:02;;;;;;;;;6.00;6.00;;;;;29.04;37.53;101539.88;4988628;28;45432;-73
2022/08/31 09:58:29;;;;;;;;;7.00;5.00;;;;;29.04;37.97;101531.69;4984164;28;45412;-75
2022/08/31 10:00:55;;;;;;;;;5.67;5.67;;;;;29.09;38.37;101533.88;4973897;28;46428;-74
2022/08/31 10:03:27;;;;;;;;;5.33;5.33;;;;;29.11;38.23;101529.03;4968246;28;45796;-73
2022/08/31 10:05:54;;;;;;;;;6.00;5.00;;;;;29.12;37.66;101528.88;4974827;28;45803;-74
2022/08/31 10:08:56;;;;;;;;;7.00;7.00;;;;;29.15;38.41;101533.09;4974679;28;45815;-73
2022/08/31 10:11:26;;;;;;;;;6.33;6.33;;;;;29.18;38.56;101530.84;5042051;28;47152;-73
2022/08/31 10:13:59;;;;;;;;;6.33;6.00;;;;;29.21;37.91;101535.06;5049385;28;45606;-73
2022/08/31 10:16:42;;;;;;;;;6.00;5.67;;;;;29.23;38.08;101529.44;5048737;28;45511;-74
2022/08/31 10:19:13;;;;;;;;;8.00;7.00;;;;;29.24;38.48;101523.78;5044934;28;47487;-74
2022/08/31 10:22:01;;;;;;;;;6.67;6.67;;;;;29.31;37.73;101527.44;5041132;28;46856;-72
2022/08/31 10:24:32;;;;;;;;;6.33;6.33;;;;;29.41;36.95;101518.09;5045446;28;45476;-72
2022/08/31 10:27:07;;;;;;;;;8.00;8.00;;;;;29.49;37.08;101520.75;5049853;28;45727;-73
2022/08/31 10:29:42;;;;;;;;;6.67;6.67;;;;;29.55;36.80;101521.91;5048193;28;45747;-73
2022/08/31 10:32:29;;;;;;;;;6.67;6.67;;;;;29.56;36.19;101521.72;5046922;28;47476;-72
2022/08/31 10:35:05;;;;;;;;;6.67;6.67;;;;;29.56;36.19;101508.03;5045081;28;45735;-74
2022/08/31 10:38:06;;;;;;;;;9.67;8.00;;;;;29.57;36.66;101519.81;5053501;28;45276;-72
2022/08/31 10:40:40;;;;;;;;;7.00;7.00;;;;;29.59;36.93;101509.53;5054961;28;45785;-72
2022/08/31 10:43:15;;;;;;;;;7.00;7.00;;;;;29.60;36.42;101513.97;5049791;28;46346;-72
2022/08/31 10:45:45;;;;;;;;;9.00;7.00;;;;;29.59;36.08;101506.81;5052699;28;45430;-73
2022/08/31 10:48:12;;;;;;;;;6.33;6.33;;;;;29.64;36.08;101514.44;5051767;28;45447;-73
2022/08/31 10:50:49;;;;;;;;;6.67;6.67;;;;;29.66;35.90;101512.34;5053265;28;45486;-73
2022/08/31 10:53:36;;;;;;;;;10.00;8.67;;;;;29.67;35.79;101509.41;5052883;28;46270;-73
2022/08/31 10:56:10;;;;;;;;;6.33;6.33;;;;;29.68;35.94;101499.31;5051489;28;45532;-74
2022/08/31 10:58:36;;;;;;;;;13.67;9.33;;;;;29.62;35.92;101502.84;5049801;28;45477;-74
2022/08/31 11:01:11;;;;;;;;;7.67;7.67;;;;;29.59;36.00;101506.81;5052364;28;45720;-73
2022/08/31 11:04:17;;;;;;;;;9.67;8.67;;;;;29.61;35.98;101504.72;5051107;28;46127;-72
2022/08/31 11:06:56;;;;;;;;;9.00;9.00;;;;;29.63;36.17;101499.06;5046877;28;47028;-73
2022/08/31 11:09:31;;;;;;;;;6.33;6.33;;;;;29.64;35.81;101496.13;5052512;28;45525;-73
2022/08/31 11:12:05;;;;;;;;;9.00;7.67;;;;;29.67;36.23;101497.63;5047632;28;45587;-73
2022/08/31 11:15:09;;;;;;;;;9.00;9.00;;;;;29.69;35.81;101493.66;5048813;28;46298;-72
2022/08/31 11:18:08;;;;;;;;;7.00;7.00;;;;;29.71;35.47;101497.06;5049557;28;45478;-72
2022/08/31 11:21:04;;;;;;;;;9.33;9.33;;;;;29.71;36.04;101497.06;5054903;28;45457;-72
2022/08/31 11:23:48;;;;;;;;;10.00;10.00;;;;;29.71;35.97;101486.09;5048664;28;45503;-72
2022/08/31 11:26:32;;;;;;;;;6.00;6.00;;;;;29.73;35.79;101499.59;5045104;28;46008;-72
2022/08/31 11:29:12;;;;;;;;;9.00;9.00;;;;;29.69;36.12;101493.66;5054052;28;45378;-72
2022/08/31 11:31:38;;;;;;;;;11.33;9.33;;;;;29.41;35.77;101493.50;5051366;28;45402;-72
2022/08/31 11:34:12;;;;;;;;;9.00;9.00;;;;;29.10;37.13;101491.81;5054760;28;45415;-71
2022/08/31 11:36:40;;;;;;;;;8.00;8.00;;;;;28.84;37.63;101491.22;5054555;28;46885;-71
2022/08/31 11:39:05;;;;;;;;;6.67;6.67;;;;;28.61;37.93;101481.19;5053223;28;45470;-72
2022/08/31 11:41:46;;;;;;;;;9.33;8.00;;;;;28.42;37.66;101468.91;5049198;28;45669;-72
2022/08/31 14:35:09;;;;;;;;;9.67;8.00;;;;;25.09;46.23;101359.88;5074095;27;45536;-70
2022/08/31 14:37:34;;;;;;;;;10.67;10.67;;;;;25.13;46.35;101356.66;5052937;28;45630;-70
2022/08/31 14:40:02;;;;;;;;;11.33;11.33;;;;;25.24;46.78;101352.78;5052391;27;45422;-70
2022/08/31 14:42:35;;;;;;;;;10.67;10.33;;;;;25.39;46.61;101352.16;5048602;28;45750;-71
2022/08/31 14:45:07;;;;;;;;;12.00;12.00;;;;;25.55;46.43;101345.91;5049617;28;47155;-70
2022/08/31 14:47:38;;;;;;;;;10.67;10.67;;;;;25.73;46.16;101351.19;5050928;28;45431;-71
2022/08/31 14:50:04;;;;;;;;;8.33;7.33;;;;;25.90;45.70;101348.47;5063211;28;45506;-73
2022/08/31 14:52:40;;;;;;;;;10.33;10.33;;;;;26.04;45.72;101350.50;5068234;27;45733;-71
2022/08/31 14:55:09;;;;;;;;;11.00;11.00;;;;;26.22;45.15;101344.03;5060611;28;45928;-70
2022/08/31 14:57:38;;;;;;;;;11.67;10.00;;;;;26.36;44.96;101347.94;5053904;28;46152;-71
2022/08/31 15:00:05;;;;;;;;;9.33;9.00;;;;;26.50;44.66;101345.53;5058828;28;45466;-71
2022/08/31 15:02:32;;;;;;;;;9.00;9.00;;;;;26.61;44.96;101328.00;5057618;28;45498;-71
2022/08/31 15:05:05;;;;;;;;;12.00;12.00;;;;;26.72;44.52;101337.66;5059344;28;45973;-71
2022/08/31 15:07:33;;;;;;;;;12.33;11.33;;;;;26.78;44.74;101337.81;5061332;28;45376;-71
2022/08/31 15:09:59;;;;;;;;;10.67;10.00;;;;;26.83;44.63;101340.84;5064598;28;45522;-71
2022/08/31 15:12:25;;;;;;;;;8.67;8.67;;;;;26.93;44.37;101332.47;5060470;27;45443;-70
2022/08/31 15:14:57;;;;;;;;;10.00;10.00;;;;;27.00;44.20;101335.34;5060497;28;46114;-71
2022/08/31 15:17:23;;;;;;;;;9.33;8.33;;;;;27.03;43.50;101336.88;5064266;27;45521;-70
2022/08/31 15:19:51;;;;;;;;;11.00;11.00;;;;;27.06;44.13;101331.91;5058393;28;45344;-71
2022/08/31 15:22:17;;;;;;;;;12.00;11.33;;;;;27.10;43.80;101332.41;5056208;27;45598;-72
2022/08/31 15:24:44;;;;;;;;;11.00;10.00;;;;;27.14;43.92;101325.56;5060010;27;45478;-72
2022/08/31 15:27:13;;;;;;;;;10.33;10.33;;;;;27.17;43.76;101327.06;5055876;28;45578;-72
2022/08/31 15:29:40;;;;;;;;;11.00;10.00;;;;;27.20;43.65;101327.59;5056407;27;45467;-71
2022/08/31 15:32:08;;;;;;;;;11.00;11.00;;;;;27.24;43.78;101328.06;5058069;28;45504;-71
2022/08/31 15:34:35;;;;;;;;;10.33;9.33;;;;;27.29;43.54;101324.78;5057157;28;47175;-72
2022/08/31 15:37:03;;;;;;;;;11.33;11.33;;;;;27.31;43.59;101320.88;5051586;28;45502;-72
2022/08/31 15:39:36;;;;;;;;;8.00;8.00;;;;;27.35;42.97;101319.47;5053840;28;45483;-72
2022/08/31 15:42:07;;;;;;;;;11.00;11.00;;;;;27.54;43.43;101319.19;5050016;28;45772;-73
2022/08/31 15:44:34;;;;;;;;;9.33;9.33;;;;;27.76;42.95;101322.97;5045533;28;47398;-72
2022/08/31 15:49:44;;;;;;;;;11.00;11.00;;;;;28.11;41.73;101308.81;5039877;28;45593;-72
2022/08/31 15:52:09;;;;;;;;;12.00;12.00;;;;;28.24;41.70;101321.84;5041576;28;45446;-72
2022/08/31 15:54:35;;;;;;;;;11.33;11.33;;;;;28.40;42.02;101324.41;5036649;28;46124;-70
2022/08/31 15:57:06;;;;;;;;;12.67;11.67;;;;;28.56;40.95;101321.69;5036413;28;45450;-71
2022/08/31 15:59:36;;;;;;;;;12.00;12.00;;;;;28.71;41.34;101321.66;5038375;28;45747;-71
2022/08/31 16:02:03;;;;;;;;;10.00;10.00;;;;;28.82;40.93;101315.72;5045272;28;45336;-71
2022/08/31 16:04:30;;;;;;;;;13.67;13.67;;;;;28.92;40.53;101324.50;5053029;28;46146;-71
2022/08/31 16:06:58;;;;;;;;;11.67;11.67;;;;;29.02;40.50;101313.25;5039570;28;45395;-70
2022/08/31 16:09:23;;;;;;;;;14.33;14.33;;;;;29.12;39.83;101315.69;5040953;28;45704;-72
2022/08/31 16:11:49;;;;;;;;;10.33;10.33;;;;;29.19;40.47;101307.56;5034814;28;47136;-72
2022/08/31 16:14:16;;;;;;;;;14.00;14.00;;;;;29.23;39.64;101310.75;5036346;28;46528;-72
2022/08/31 16:16:44;;;;;;;;;14.00;11.67;;;;;29.28;39.74;101311.00;5035612;28;45418;-72
2022/08/31 16:19:11;;;;;;;;;11.67;10.33;;;;;29.32;39.85;101307.72;5039785;28;45597;-71
2022/08/31 16:21:43;;;;;;;;;9.33;9.33;;;;;29.37;39.93;101303.53;5034300;28;45324;-72
2022/08/31 16:24:16;;;;;;;;;11.33;9.67;;;;;29.42;39.76;101306.56;5037354;28;45468;-71
2022/08/31 16:26:43;;;;;;;;;10.67;10.33;;;;;29.45;39.30;101304.25;5034018;28;45534;-71
2022/08/31 16:29:13;;;;;;;;;10.00;10.00;;;;;29.50;39.14;101311.03;5038941;28;46169;-71
2022/08/31 16:31:41;;;;;;;;;10.00;10.00;;;;;29.50;39.50;101311.91;5035221;28;45478;-71
2022/08/31 16:34:07;;;;;;;;;10.00;10.00;;;;;29.57;39.51;101314.69;5034192;28;46845;-72
2022/08/31 16:36:33;;;;;;;;;11.00;11.00;;;;;29.57;39.37;101312.81;5046287;28;45411;-72
2022/08/31 16:39:00;;;;;;;;;12.00;12.00;;;;;29.58;38.99;101317.25;5039151;28;45426;-72
2022/08/31 16:41:28;;;;;;;;;11.67;10.00;;;;;29.62;39.25;101312.22;5036266;28;45533;-73
2022/08/31 16:43:54;;;;;;;;;9.00;9.00;;;;;29.64;39.12;101312.03;5042696;28;45541;-72
2022/08/31 16:46:19;;;;;;;;;11.00;11.00;;;;;29.66;39.08;101310.78;5053011;28;45295;-72
2022/08/31 16:51:29;;;;;;;;;10.00;10.00;;;;;29.73;38.87;101305.38;5040372;28;45688;-72
2022/08/31 16:53:57;;;;;;;;;14.00;14.00;;;;;29.73;38.87;101302.63;5046785;28;45465;-73
2022/08/31 16:56:26;;;;;;;;;13.00;10.33;;;;;29.75;38.51;101299.72;5040599;28;45597;-73
2022/08/31 16:58:53;;;;;;;;;14.00;13.00;;;;;29.76;39.25;101305.00;5053632;28;45561;-73
2022/08/31 17:01:22;;;;;;;;;10.67;10.67;;;;;29.71;38.83;101300.09;5047745;28;46663;-73
2022/08/31 17:03:57;;;;;;;;;11.33;11.33;;;;;29.69;38.88;101294.00;5057197;27;46953;-74
2022/08/31 17:06:28;;;;;;;;;12.33;12.33;;;;;29.70;38.42;101297.56;5063523;28;45506;-73
2022/08/31 17:08:56;;;;;;;;;12.33;12.33;;;;;29.70;38.32;101295.69;5054573;28;45276;-73
2022/08/31 17:11:30;;;;;;;;;13.67;11.33;;;;;29.71;38.60;101302.84;5051043;28;45421;-73
2022/08/31 17:13:59;;;;;;;;;12.00;10.67;;;;;29.70;38.67;101303.03;5047391;28;47068;-73
2022/08/31 17:16:36;;;;;;;;;10.67;10.67;;;;;29.67;38.10;101290.59;5044493;28;46106;-73
2022/08/31 17:19:06;;;;;;;;;12.00;11.33;;;;;29.66;38.51;101293.50;5054247;28;45859;-73
2022/08/31 17:21:32;;;;;;;;;12.00;12.00;;;;;29.65;38.70;101294.56;5055048;28;45455;-73
2022/08/31 17:24:02;;;;;;;;;10.33;10.33;;;;;29.68;38.80;101291.44;5051445;28;45523;-73
2022/08/31 17:26:32;;;;;;;;;13.33;13.00;;;;;29.69;38.67;101299.47;5041571;28;45373;-74
2022/08/31 17:29:01;;;;;;;;;9.67;9.67;;;;;29.65;38.82;101289.94;5044684;28;45402;-73
2022/08/31 17:31:28;;;;;;;;;15.00;14.00;;;;;29.62;38.19;101293.06;5050281;28;45399;-73
2022/08/31 17:33:55;;;;;;;;;12.00;11.67;;;;;29.58;38.41;101291.78;5050707;28;46517;-73
2022/08/31 17:36:22;;;;;;;;;11.67;9.67;;;;;29.55;38.75;101300.38;5053247;28;45433;-72
2022/08/31 17:38:47;;;;;;;;;14.00;12.67;;;;;29.52;38.61;101287.09;5054305;28;45621;-72
2022/08/31 17:41:13;;;;;;;;;13.00;11.00;;;;;29.51;38.63;101288.16;5049774;28;45463;-72
2022/08/31 17:43:38;;;;;;;;;11.00;11.00;;;;;29.49;38.57;101290.19;5036367;28;45458;-73
2022/08/31 17:46:08;;;;;;;;;11.33;11.33;;;;;29.43;38.72;101292.66;5054855;28;45727;-72
2022/08/31 17:48:37;;;;;;;;;13.00;10.00;;;;;29.39;39.28;101290.53;5044415;28;45571;-72
2022/08/31 17:51:08;;;;;;;;;14.00;11.00;;;;;29.36;39.24;101290.91;5053812;28;45557;-73
2022/08/31 17:53:35;;;;;;;;;11.33;11.00;;;;;29.32;39.04;101295.91;5038138;28;45474;-72
2022/08/31 17:56:00;;;;;;;;;11.33;11.33;;;;;29.28;38.78;101289.16;5049660;28;45477;-72
2022/08/31 17:58:27;;;;;;;;;12.33;10.00;;;;;29.33;38.91;101292.13;5053404;28;45355;-72
2022/08/31 18:00:53;;;;;;;;;14.00;10.67;;;;;29.32;38.92;101304.97;5049489;28;45461;-72
2022/08/31 18:03:19;;;;;;;;;12.00;12.00;;;;;29.37;39.14;101307.13;5048659;28;47044;-73
2022/08/31 18:05:46;;;;;;;;;12.00;11.67;;;;;29.39;38.46;101307.75;5052606;28;45696;-72
2022/08/31 18:08:12;;;;;;;;;11.33;11.33;;;;;29.40;38.48;101308.63;5043990;28;45375;-72
2022/08/31 18:10:40;;;;;;;;;11.33;11.33;;;;;29.39;38.69;101301.47;5052223;28;45589;-72
2022/08/31 18:13:06;;;;;;;;;11.67;11.33;;;;;29.43;38.48;101305.50;5052439;28;46202;-72
2022/08/31 18:15:33;;;;;;;;;11.33;11.33;;;;;29.44;38.35;101305.31;5050787;28;45456;-72
2022/08/31 18:17:59;;;;;;;;;13.33;10.67;;;;;29.46;39.10;101311.41;5050379;28;45463;-73
2022/08/31 18:20:25;;;;;;;;;13.00;13.00;;;;;29.48;38.25;101313.09;5051521;28;45608;-73
2022/08/31 18:22:51;;;;;;;;;10.33;10.00;;;;;29.50;38.41;101309.16;5054742;28;48015;-73
2022/08/31 18:25:16;;;;;;;;;11.33;11.33;;;;;29.54;39.00;101318.66;5044623;28;45998;-73
2022/08/31 18:27:41;;;;;;;;;12.67;12.67;;;;;29.57;38.31;101318.28;5048686;28;45438;-72
2022/08/31 18:30:12;;;;;;;;;13.33;12.00;;;;;29.58;38.33;101314.50;5052843;28;45403;-72
2022/08/31 18:32:38;;;;;;;;;12.67;12.00;;;;;29.58;38.77;101321.84;5051067;28;46496;-72
2022/08/31 18:35:10;;;;;;;;;14.67;13.67;;;;;29.56;38.46;101319.34;5054123;28;45352;-72
2022/08/31 18:37:35;;;;;;;;;12.67;11.00;;;;;29.57;38.30;101331.97;5053170;28;45537;-72
2022/08/31 19:02:55;;;;;;;;;15.33;14.00;;;;;28.38;40.09;101334.69;5067996;27;45573;-72
2022/08/31 19:05:20;;;;;;;;;16.00;14.00;;;;;28.31;40.63;101332.88;5057893;28;45469;-72
2022/08/31 19:07:46;;;;;;;;;13.33;13.33;;;;;28.33;40.90;101344.44;5051053;28;45431;-74
2022/08/31 19:10:12;;;;;;;;;15.33;14.33;;;;;28.38;41.00;101336.56;5058738;27;45473;-71
2022/08/31 19:12:37;;;;;;;;;15.00;11.67;;;;;28.49;41.01;101337.97;5055786;28;47034;-72
2022/08/31 19:15:03;;;;;;;;;14.33;14.00;;;;;28.61;40.85;101341.09;5058887;28;45673;-70
2022/08/31 19:17:29;;;;;;;;;14.67;14.67;;;;;28.71;40.43;101340.78;5057092;28;45334;-70
2022/08/31 19:19:54;;;;;;;;;13.00;13.00;;;;;28.76;40.76;101346.53;5053415;28;45423;-72
2022/08/31 19:22:20;;;;;;;;;11.33;11.33;;;;;28.76;41.53;101338.31;5050844;28;45412;-72
2022/08/31 19:24:46;;;;;;;;;13.00;13.00;;;;;28.66;41.19;101342.19;5055171;28;45468;-72
2022/08/31 19:27:12;;;;;;;;;13.00;13.00;;;;;28.62;41.46;101342.78;5057869;28;46030;-74
2022/08/31 19:29:39;;;;;;;;;14.33;14.33;;;;;28.54;41.46;101352.72;5054242;28;45754;-72
2022/08/31 19:32:05;;;;;;;;;14.00;12.33;;;;;28.48;42.12;101347.22;5061478;28;45451;-73
2022/08/31 19:34:37;;;;;;;;;12.33;12.33;;;;;28.44;42.42;101346.72;5061542;28;45733;-76
2022/08/31 19:37:05;;;;;;;;;13.67;13.67;;;;;28.41;42.11;101344.38;5056221;28;45378;-75
2022/08/31 19:39:32;;;;;;;;;12.00;12.00;;;;;28.36;42.35;101350.38;5058988;28;45573;-78
2022/08/31 19:42:05;;;;;;;;;10.00;10.00;;;;;28.34;43.11;101357.94;5050857;28;46251;-76
2022/08/31 19:44:32;;;;;;;;;12.33;11.67;;;;;28.32;42.86;101353.69;5053320;28;45421;-75
